createdAt,value
2022-11-26T00:02:22.906Z,12.08
2022-11-26T00:04:50.630Z,11.95
2022-11-26T00:07:18.986Z,12.06
2022-11-26T00:09:46.123Z,11.81
2022-11-26T00:12:20.543Z,12.29
2022-11-26T00:14:47.676Z,12.26
2022-11-26T00:17:15.340Z,12.53
2022-11-26T00:19:42.821Z,12.53
2022-11-26T00:22:24.610Z,12.50
2022-11-26T00:24:52.487Z,12.66
2022-11-26T00:27:19.707Z,12.70
2022-11-26T00:29:46.805Z,12.77
2022-11-26T00:32:15.187Z,12.47
2022-11-26T00:34:42.384Z,12.39
2022-11-26T00:37:12.079Z,12.55
2022-11-26T00:39:39.481Z,12.71
2022-11-26T00:42:06.588Z,12.23
2022-11-26T00:44:33.685Z,12.40
2022-11-26T00:47:01.039Z,12.60
2022-11-26T00:49:28.936Z,12.56
2022-11-26T00:51:56.056Z,12.84
2022-11-26T00:54:23.435Z,12.79
2022-11-26T00:56:50.749Z,13.04
2022-11-26T00:59:19.183Z,13.04
2022-11-26T01:01:46.609Z,13.04
2022-11-26T01:04:13.812Z,13.08
2022-11-26T01:06:41.607Z,13.08
2022-11-26T01:09:12.940Z,12.98
2022-11-26T01:11:40.036Z,13.00
2022-11-26T01:14:09.711Z,12.83
2022-11-26T01:16:39.272Z,12.97
2022-11-26T01:19:06.440Z,12.97
2022-11-26T01:21:33.535Z,13.13
2022-11-26T01:24:00.927Z,13.21
2022-11-26T01:26:28.606Z,13.08
2022-11-26T01:28:55.738Z,13.06
2022-11-26T01:31:24.133Z,13.18
2022-11-26T01:33:51.285Z,12.91
2022-11-26T01:36:38.027Z,12.93
2022-11-26T01:39:06.701Z,12.55
2022-11-26T01:41:43.705Z,12.71
2022-11-26T01:44:16.192Z,12.77
2022-11-26T01:46:43.334Z,12.47
2022-11-26T01:49:15.133Z,12.73
2022-11-26T01:51:42.246Z,12.85
2022-11-26T01:54:09.394Z,12.96
2022-11-26T01:56:41.457Z,12.62
2022-11-26T01:59:08.556Z,12.88
2022-11-26T02:01:36.044Z,12.94
2022-11-26T02:04:11.477Z,12.82
2022-11-26T02:06:38.579Z,12.33
2022-11-26T02:09:06.614Z,12.48
2022-11-26T02:11:33.716Z,12.67
2022-11-26T02:14:32.174Z,12.78
2022-11-26T02:17:19.370Z,12.73
2022-11-26T02:20:06.034Z,12.20
2022-11-26T02:22:33.337Z,12.62
2022-11-26T02:25:19.931Z,12.77
2022-11-26T02:27:52.299Z,12.75
2022-11-26T02:30:19.467Z,12.68
2022-11-26T02:32:54.453Z,12.51
2022-11-26T02:35:31.920Z,12.63
2022-11-26T02:38:04.735Z,12.69
2022-11-26T02:40:32.101Z,12.64
2022-11-26T02:42:59.597Z,12.76
2022-11-26T02:45:28.184Z,12.64
2022-11-26T02:47:56.212Z,12.85
2022-11-26T02:50:27.738Z,12.69
2022-11-26T02:52:55.101Z,12.64
2022-11-26T02:55:23.411Z,12.88
2022-11-26T02:57:51.944Z,12.51
2022-11-26T03:00:19.269Z,12.28
2022-11-26T03:02:46.570Z,11.74
2022-11-26T03:05:13.738Z,11.27
2022-11-26T03:07:40.991Z,11.38
2022-11-26T03:10:08.674Z,11.73
2022-11-26T03:12:35.786Z,11.89
2022-11-26T03:15:03.197Z,11.85
2022-11-26T03:17:30.832Z,12.12
2022-11-26T03:19:57.936Z,12.13
2022-11-26T03:22:25.057Z,12.26
2022-11-26T03:24:52.427Z,12.08
2022-11-26T03:27:19.538Z,12.35
2022-11-26T03:29:46.666Z,12.33
2022-11-26T03:32:14.109Z,12.21
2022-11-26T03:34:41.368Z,12.14
2022-11-26T03:37:10.008Z,12.01
2022-11-26T03:39:37.439Z,12.11
2022-11-26T03:42:04.536Z,12.40
2022-11-26T03:44:32.156Z,12.57
2022-11-26T03:46:59.525Z,12.59
2022-11-26T03:49:26.696Z,12.56
2022-11-26T03:51:53.784Z,12.48
2022-11-26T03:54:21.127Z,12.53
2022-11-26T03:56:48.304Z,12.46
2022-11-26T03:59:15.413Z,12.51
2022-11-26T04:01:42.843Z,12.43
2022-11-26T04:04:10.282Z,12.49
2022-11-26T04:06:37.424Z,12.73
2022-11-26T04:09:04.533Z,11.93
2022-11-26T04:11:31.905Z,11.30
2022-11-26T04:13:59.054Z,11.53
2022-11-26T04:16:26.225Z,11.86
2022-11-26T04:18:53.592Z,11.33
2022-11-26T04:21:20.687Z,11.51
2022-11-26T04:23:48.209Z,11.61
2022-11-26T04:26:15.578Z,11.91
2022-11-26T04:28:43.976Z,11.84
2022-11-26T04:31:11.064Z,12.01
2022-11-26T04:33:38.423Z,11.84
2022-11-26T04:36:05.531Z,11.37
2022-11-26T04:38:32.641Z,11.95
2022-11-26T04:41:00.000Z,11.91
2022-11-26T04:43:27.110Z,12.02
2022-11-26T04:45:54.231Z,12.27
2022-11-26T04:48:21.616Z,12.18
2022-11-26T04:50:49.195Z,11.40
2022-11-26T04:53:16.727Z,12.03
2022-11-26T04:55:44.073Z,10.31
2022-11-26T04:58:11.363Z,11.17
2022-11-26T05:00:40.114Z,11.34
2022-11-26T05:03:07.657Z,10.57
2022-11-26T05:05:34.916Z,10.62
2022-11-26T05:08:02.139Z,11.36
2022-11-26T05:10:29.504Z,11.60
2022-11-26T05:12:56.591Z,11.76
2022-11-26T05:15:23.709Z,12.14
2022-11-26T05:17:51.085Z,12.39
2022-11-26T05:20:18.177Z,12.47
2022-11-26T05:22:45.277Z,12.56
2022-11-26T05:25:12.670Z,12.56
2022-11-26T05:27:39.795Z,12.68
2022-11-26T05:30:07.495Z,12.95
2022-11-26T05:32:34.854Z,12.75
2022-11-26T05:35:01.960Z,12.08
2022-11-26T05:37:29.077Z,11.63
2022-11-26T05:39:56.488Z,10.83
2022-11-26T05:42:23.578Z,11.44
2022-11-26T05:44:50.679Z,11.93
2022-11-26T05:47:18.019Z,12.25
2022-11-26T05:49:45.129Z,11.26
2022-11-26T05:52:12.221Z,12.13
2022-11-26T05:54:39.999Z,12.06
2022-11-26T05:57:07.247Z,12.40
2022-11-26T05:59:34.603Z,12.66
2022-11-26T06:02:02.120Z,12.61
2022-11-26T06:04:29.569Z,12.64
2022-11-26T06:06:57.693Z,12.84
2022-11-26T06:09:24.796Z,12.77
2022-11-26T06:11:52.181Z,12.64
2022-11-26T06:14:19.313Z,12.62
2022-11-26T06:16:46.492Z,12.79
2022-11-26T06:19:13.973Z,12.90
2022-11-26T06:21:41.079Z,12.99
2022-11-26T06:24:08.178Z,13.03
2022-11-26T06:26:35.545Z,13.17
2022-11-26T06:29:03.124Z,12.98
2022-11-26T06:31:30.320Z,12.94
2022-11-26T06:33:57.721Z,13.04
2022-11-26T06:36:24.823Z,12.95
2022-11-26T06:38:51.917Z,12.99
2022-11-26T06:41:19.299Z,12.55
2022-11-26T06:43:46.407Z,12.39
2022-11-26T06:46:13.551Z,12.24
2022-11-26T06:48:40.955Z,12.68
2022-11-26T06:51:09.556Z,12.66
2022-11-26T06:53:36.690Z,12.64
2022-11-26T06:56:04.828Z,12.84
2022-11-26T06:58:32.034Z,12.74
2022-11-26T07:00:59.215Z,12.43
2022-11-26T07:03:31.877Z,12.82
2022-11-26T07:06:00.303Z,12.93
2022-11-26T07:08:27.668Z,12.87
2022-11-26T07:10:54.776Z,12.62
2022-11-26T07:13:21.885Z,12.41
2022-11-26T07:15:49.304Z,12.79
2022-11-26T07:18:16.463Z,12.74
2022-11-26T07:20:43.546Z,11.91
2022-11-26T07:23:10.969Z,11.29
2022-11-26T07:25:38.082Z,11.92
2022-11-26T07:28:05.195Z,12.51
2022-11-26T07:30:32.570Z,11.99
2022-11-26T07:32:59.689Z,12.64
2022-11-26T07:35:27.115Z,12.24
2022-11-26T07:37:54.225Z,11.38
2022-11-26T07:40:21.402Z,12.23
2022-11-26T07:42:53.168Z,12.09
2022-11-26T07:45:24.466Z,12.30
2022-11-26T07:47:51.828Z,13.08
2022-11-26T07:50:18.930Z,12.68
2022-11-26T07:52:46.049Z,12.78
2022-11-26T07:55:13.439Z,12.02
2022-11-26T07:57:40.540Z,12.06
2022-11-26T08:00:07.956Z,12.07
2022-11-26T08:02:39.053Z,10.44
2022-11-26T08:05:06.692Z,10.41
2022-11-26T08:07:34.869Z,11.51
2022-11-26T08:10:02.408Z,11.08
2022-11-26T08:12:29.770Z,11.53
2022-11-26T08:14:57.002Z,11.15
2022-11-26T08:17:24.109Z,11.81
2022-11-26T08:19:51.459Z,11.53
2022-11-26T08:22:18.554Z,11.85
2022-11-26T08:24:45.700Z,10.71
2022-11-26T08:27:13.077Z,9.62
2022-11-26T08:29:40.195Z,10.14
2022-11-26T08:32:07.633Z,10.71
2022-11-26T08:34:35.412Z,10.88
2022-11-26T08:37:02.516Z,10.98
2022-11-26T08:39:29.637Z,10.98
2022-11-26T08:41:57.033Z,11.01
2022-11-26T08:44:24.227Z,10.78
2022-11-26T08:46:51.317Z,11.07
2022-11-26T08:49:18.752Z,9.80
2022-11-26T08:51:45.927Z,10.77
2022-11-26T08:54:13.019Z,10.75
2022-11-26T08:56:40.430Z,11.00
2022-11-26T08:59:07.551Z,11.12
2022-11-26T09:01:34.738Z,11.28
2022-11-26T09:04:02.557Z,11.12
2022-11-26T09:06:30.513Z,11.82
2022-11-26T09:09:13.084Z,12.33
2022-11-26T09:11:50.853Z,11.75
2022-11-26T09:14:19.271Z,11.90
2022-11-26T09:16:46.777Z,12.24
2022-11-26T09:19:13.971Z,11.84
2022-11-26T09:21:41.077Z,11.51
2022-11-26T09:24:08.640Z,12.30
2022-11-26T09:26:35.994Z,12.12
2022-11-26T09:29:03.623Z,11.43
2022-11-26T09:31:31.127Z,10.59
2022-11-26T09:33:58.974Z,10.48
2022-11-26T09:36:26.189Z,11.40
2022-11-26T09:38:57.098Z,10.45
2022-11-26T09:41:28.883Z,10.11
2022-11-26T09:44:15.317Z,9.66
2022-11-26T09:47:11.698Z,10.61
2022-11-26T09:49:42.963Z,11.17
2022-11-26T09:52:10.059Z,10.16
2022-11-26T09:54:37.379Z,10.28
2022-11-26T09:57:19.801Z,10.42
2022-11-26T09:59:46.960Z,10.97
2022-11-26T10:02:14.493Z,10.78
2022-11-26T10:04:41.925Z,11.79
2022-11-26T10:07:09.076Z,11.61
2022-11-26T10:09:36.499Z,12.05
2022-11-26T10:12:25.904Z,12.62
2022-11-26T10:15:07.793Z,11.87
2022-11-26T10:17:38.710Z,11.95
2022-11-26T10:20:24.244Z,11.88
2022-11-26T10:23:17.679Z,12.00
2022-11-26T10:25:46.437Z,11.74
2022-11-26T10:28:16.839Z,11.67
2022-11-26T10:30:43.955Z,11.39
2022-11-26T10:33:12.097Z,11.16
2022-11-26T10:35:39.600Z,11.49
2022-11-26T10:38:08.493Z,11.75
2022-11-26T10:40:35.679Z,12.28
2022-11-26T10:43:08.122Z,12.30
2022-11-26T10:45:47.945Z,11.72
2022-11-26T10:48:21.747Z,11.40
2022-11-26T10:50:55.335Z,11.68
2022-11-26T10:53:23.281Z,11.87
2022-11-26T10:55:50.956Z,12.06
2022-11-26T10:58:22.348Z,12.58
2022-11-26T11:00:49.757Z,12.60
2022-11-26T11:03:44.551Z,12.14
2022-11-26T11:06:18.718Z,12.46
2022-11-26T11:08:49.901Z,12.72
2022-11-26T11:11:23.369Z,12.77
2022-11-26T11:13:50.567Z,12.96
2022-11-26T11:16:25.661Z,12.65
2022-11-26T11:18:54.680Z,12.40
2022-11-26T11:21:22.473Z,11.53
2022-11-26T11:24:08.157Z,12.03
2022-11-26T11:26:40.551Z,10.77
2022-11-26T11:29:11.604Z,11.88
2022-11-26T11:31:45.590Z,11.98
2022-11-26T11:34:18.010Z,11.29
2022-11-26T11:36:45.413Z,11.31
2022-11-26T11:39:26.958Z,11.21
2022-11-26T11:41:54.336Z,12.07
2022-11-26T11:44:25.634Z,12.00
2022-11-26T11:47:11.611Z,11.61
2022-11-26T11:49:43.069Z,11.29
2022-11-26T11:52:13.439Z,11.13
2022-11-26T11:55:00.154Z,12.05
2022-11-26T11:57:38.097Z,11.34
2022-11-26T12:00:26.763Z,11.60
2022-11-26T12:02:54.075Z,11.14
2022-11-26T12:05:36.343Z,11.00
2022-11-26T12:08:12.378Z,11.30
2022-11-26T12:10:48.732Z,11.00
2022-11-26T12:13:16.096Z,11.12
2022-11-26T12:15:51.803Z,10.64
2022-11-26T12:18:22.565Z,11.39
2022-11-26T12:20:50.903Z,10.76
2022-11-26T12:23:36.673Z,11.29
2022-11-26T12:26:06.296Z,11.03
2022-11-26T12:28:34.215Z,10.97
2022-11-26T12:31:05.870Z,11.15
2022-11-26T12:33:41.399Z,10.61
2022-11-26T12:36:24.902Z,10.66
2022-11-26T12:39:06.635Z,11.37
2022-11-26T12:41:33.759Z,12.20
2022-11-26T12:44:04.125Z,10.60
2022-11-26T12:46:34.756Z,11.62
2022-11-26T12:49:14.232Z,11.22
2022-11-26T12:51:55.185Z,10.62
2022-11-26T12:54:24.667Z,10.89
2022-11-26T12:56:57.287Z,11.59
2022-11-26T12:59:30.585Z,11.09
2022-11-26T13:01:57.972Z,12.03
2022-11-26T13:04:37.538Z,10.91
2022-11-26T13:07:25.952Z,11.49
2022-11-26T13:09:59.251Z,11.22
2022-11-26T13:12:29.596Z,11.86
2022-11-26T13:15:00.032Z,11.34
2022-11-26T13:17:29.434Z,11.10
2022-11-26T13:20:00.352Z,11.71
2022-11-26T13:22:40.696Z,11.97
2022-11-26T13:25:09.391Z,11.93
2022-11-26T13:27:56.838Z,12.02
2022-11-26T13:30:24.944Z,12.23
2022-11-26T13:32:58.002Z,12.89
2022-11-26T13:35:37.360Z,12.87
2022-11-26T13:38:17.666Z,12.84
2022-11-26T13:41:17.589Z,12.71
2022-11-26T13:43:53.571Z,13.04
2022-11-26T13:46:22.829Z,12.61
2022-11-26T13:48:59.334Z,13.14
2022-11-26T13:51:46.998Z,12.47
2022-11-26T13:54:21.541Z,13.37
2022-11-26T13:56:48.923Z,12.72
2022-11-26T13:59:23.959Z,12.49
2022-11-26T14:01:54.442Z,13.09
2022-11-26T14:04:24.860Z,12.46
2022-11-26T14:07:03.923Z,12.17
2022-11-26T14:09:46.348Z,12.41
2022-11-26T14:12:14.026Z,11.38
2022-11-26T14:14:42.121Z,12.80
2022-11-26T14:17:13.861Z,12.52
2022-11-26T14:19:40.901Z,12.49
2022-11-26T14:22:08.233Z,12.68
2022-11-26T14:24:53.285Z,12.18
2022-11-26T14:27:24.087Z,11.47
2022-11-26T14:29:55.507Z,12.07
2022-11-26T14:32:23.565Z,11.98
2022-11-26T14:34:51.380Z,11.72
2022-11-26T14:37:19.979Z,11.80
2022-11-26T14:39:58.675Z,11.43
2022-11-26T14:42:26.081Z,12.14
2022-11-26T14:45:12.595Z,12.60
2022-11-26T14:47:39.736Z,12.52
2022-11-26T14:50:07.398Z,12.13
2022-11-26T14:52:35.138Z,12.04
2022-11-26T14:55:03.379Z,12.52
2022-11-26T14:57:49.517Z,11.39
2022-11-26T15:00:16.770Z,12.07
2022-11-26T15:02:48.278Z,12.69
2022-11-26T15:05:16.905Z,12.02
2022-11-26T15:07:44.597Z,12.64
2022-11-26T15:10:14.753Z,11.58
2022-11-26T15:12:44.689Z,11.59
2022-11-26T15:15:19.197Z,11.75
2022-11-26T15:17:50.897Z,12.16
2022-11-26T15:20:18.314Z,11.81
2022-11-26T15:22:49.404Z,12.34
2022-11-26T15:25:16.474Z,11.40
2022-11-26T15:27:54.250Z,12.17
2022-11-26T15:30:25.977Z,11.48
2022-11-26T15:33:08.655Z,12.12
2022-11-26T15:35:36.436Z,12.24
2022-11-26T15:38:14.835Z,12.22
2022-11-26T15:40:46.309Z,12.43
2022-11-26T15:43:19.935Z,12.05
2022-11-26T15:45:47.061Z,12.05
2022-11-26T15:48:28.075Z,11.89
2022-11-26T15:51:09.935Z,12.35
2022-11-26T15:53:37.635Z,13.10
2022-11-26T15:56:04.850Z,13.34
2022-11-26T15:58:33.286Z,13.54
2022-11-26T16:01:01.429Z,12.22
2022-11-26T16:03:33.162Z,12.54
2022-11-26T16:06:00.523Z,12.81
2022-11-26T16:08:30.271Z,12.89
2022-11-26T16:11:03.920Z,13.34
2022-11-26T16:13:31.751Z,13.56
2022-11-26T16:16:02.512Z,13.60
2022-11-26T16:18:37.095Z,13.61
2022-11-26T16:21:08.733Z,13.84
2022-11-26T16:23:35.980Z,13.94
2022-11-26T16:26:07.246Z,14.12
2022-11-26T16:28:34.647Z,13.92
2022-11-26T16:31:02.089Z,14.30
2022-11-26T16:33:29.770Z,14.08
2022-11-26T16:35:57.189Z,14.34
2022-11-26T16:38:25.270Z,14.35
2022-11-26T16:40:52.892Z,14.22
2022-11-26T16:43:20.885Z,14.23
2022-11-26T16:45:48.462Z,14.11
2022-11-26T16:48:25.501Z,14.15
2022-11-26T16:50:57.920Z,14.15
2022-11-26T16:53:25.190Z,14.23
2022-11-26T16:55:52.640Z,14.04
2022-11-26T16:58:29.730Z,13.71
2022-11-26T17:00:57.263Z,13.80
2022-11-26T17:03:24.892Z,13.10
2022-11-26T17:05:54.343Z,13.29
2022-11-26T17:08:25.016Z,13.57
2022-11-26T17:10:52.408Z,13.79
2022-11-26T17:13:20.604Z,13.53
2022-11-26T17:15:48.100Z,13.57
2022-11-26T17:18:20.254Z,13.66
2022-11-26T17:20:47.720Z,13.47
2022-11-26T17:23:15.126Z,13.40
2022-11-26T17:25:45.897Z,12.85
2022-11-26T17:28:14.255Z,13.11
2022-11-26T17:30:42.289Z,13.05
2022-11-26T17:33:10.162Z,12.98
2022-11-26T17:35:38.200Z,13.24
2022-11-26T17:38:10.947Z,13.19
2022-11-26T17:40:38.407Z,13.06
2022-11-26T17:43:05.518Z,12.59
2022-11-26T17:45:32.645Z,13.14
2022-11-26T17:48:00.517Z,13.22
2022-11-26T17:50:28.905Z,13.39
2022-11-26T17:52:56.458Z,12.83
2022-11-26T17:55:24.434Z,12.87
2022-11-26T17:57:52.080Z,12.63
2022-11-26T18:00:20.666Z,13.07
2022-11-26T18:02:48.279Z,12.78
2022-11-26T18:05:16.484Z,12.87
2022-11-26T18:07:43.967Z,12.81
2022-11-26T18:10:15.686Z,12.97
2022-11-26T18:12:43.105Z,12.62
2022-11-26T18:15:16.344Z,12.83
2022-11-26T18:17:51.312Z,12.60
2022-11-26T18:20:19.742Z,13.09
2022-11-26T18:22:49.761Z,13.54
2022-11-26T18:25:17.250Z,13.08
2022-11-26T18:27:44.837Z,12.84
2022-11-26T18:30:12.499Z,12.81
2022-11-26T18:32:39.732Z,13.07
2022-11-26T18:35:07.602Z,13.17
2022-11-26T18:37:35.526Z,13.67
2022-11-26T18:40:03.556Z,13.76
2022-11-26T18:42:38.657Z,13.43
2022-11-26T18:45:07.227Z,13.77
2022-11-26T18:47:35.665Z,13.95
2022-11-26T18:50:03.265Z,14.05
2022-11-26T18:52:31.286Z,13.88
2022-11-26T18:54:58.638Z,13.75
2022-11-26T18:57:26.267Z,14.05
2022-11-26T18:59:53.898Z,14.22
2022-11-26T19:02:21.755Z,14.30
2022-11-26T19:04:49.504Z,14.22
2022-11-26T19:07:17.380Z,14.03
2022-11-26T19:09:45.071Z,14.40
2022-11-26T19:12:12.911Z,14.20
2022-11-26T19:14:40.556Z,14.32
2022-11-26T19:17:09.437Z,14.28
2022-11-26T19:19:38.277Z,14.19
2022-11-26T19:22:06.608Z,14.40
2022-11-26T19:24:34.327Z,14.60
2022-11-26T19:27:03.051Z,14.52
2022-11-26T19:29:31.168Z,14.21
2022-11-26T19:31:59.096Z,14.32
2022-11-26T19:34:26.682Z,14.42
2022-11-26T19:36:56.885Z,14.62
2022-11-26T19:39:24.563Z,14.34
2022-11-26T19:41:52.309Z,13.89
2022-11-26T19:44:21.820Z,14.07
2022-11-26T19:46:49.587Z,14.33
2022-11-26T19:49:17.312Z,14.12
2022-11-26T19:51:44.763Z,14.41
2022-11-26T19:54:12.303Z,14.54
2022-11-26T19:56:39.874Z,14.25
2022-11-26T19:59:07.637Z,14.29
2022-11-26T20:01:36.261Z,13.88
2022-11-26T20:04:05.515Z,14.38
2022-11-26T20:06:33.823Z,14.53
2022-11-26T20:09:01.369Z,14.64
2022-11-26T20:11:29.363Z,14.28
2022-11-26T20:13:57.449Z,14.60
2022-11-26T20:16:26.768Z,14.65
2022-11-26T20:18:54.914Z,14.53
2022-11-26T20:21:26.979Z,14.31
2022-11-26T20:23:55.353Z,14.50
2022-11-26T20:26:25.681Z,14.50
2022-11-26T20:28:53.494Z,14.54
2022-11-26T20:31:23.887Z,14.33
2022-11-26T20:33:53.367Z,14.63
2022-11-26T20:36:23.001Z,14.91
2022-11-26T20:38:54.670Z,14.62
2022-11-26T20:41:23.296Z,14.75
2022-11-26T20:43:56.513Z,14.78
2022-11-26T20:46:25.817Z,14.40
2022-11-26T20:48:53.480Z,14.60
2022-11-26T20:51:22.376Z,14.66
2022-11-26T20:53:51.147Z,14.53
2022-11-26T20:56:19.449Z,14.60
2022-11-26T20:58:47.367Z,14.67
2022-11-26T21:01:16.201Z,14.60
2022-11-26T21:03:43.506Z,14.74
2022-11-26T21:06:12.351Z,14.59
2022-11-26T21:08:40.582Z,14.71
2022-11-26T21:11:08.406Z,14.83
2022-11-26T21:13:36.563Z,14.47
2022-11-26T21:16:04.775Z,14.54
2022-11-26T21:18:32.568Z,14.65
2022-11-26T21:21:00.054Z,14.64
2022-11-26T21:23:28.355Z,14.23
2022-11-26T21:25:55.718Z,13.93
2022-11-26T21:28:23.185Z,14.05
2022-11-26T21:30:51.166Z,13.85
2022-11-26T21:33:18.389Z,14.44
2022-11-26T21:35:45.641Z,14.16
2022-11-26T21:38:13.732Z,13.95
2022-11-26T21:40:41.048Z,13.88
2022-11-26T21:43:08.423Z,13.94
2022-11-26T21:45:35.861Z,14.17
2022-11-26T21:48:02.990Z,14.36
2022-11-26T21:50:30.245Z,13.99
2022-11-26T21:52:57.681Z,13.65
2022-11-26T21:55:24.880Z,13.74
2022-11-26T21:57:52.056Z,13.37
2022-11-26T22:00:19.553Z,14.03
2022-11-26T22:02:47.011Z,13.94
2022-11-26T22:05:14.239Z,14.08
2022-11-26T22:07:41.637Z,13.95
2022-11-26T22:10:09.453Z,14.17
2022-11-26T22:12:36.558Z,14.67
2022-11-26T22:15:03.733Z,14.58
2022-11-26T22:17:31.124Z,14.48
2022-11-26T22:19:58.261Z,14.73
2022-11-26T22:22:25.362Z,14.81
2022-11-26T22:24:52.841Z,14.81
2022-11-26T22:27:19.953Z,14.26
2022-11-26T22:29:47.635Z,14.57
2022-11-26T22:32:15.008Z,14.17
2022-11-26T22:34:42.195Z,14.65
2022-11-26T22:37:09.306Z,14.65
2022-11-26T22:39:36.852Z,14.53
2022-11-26T22:42:04.173Z,14.81
2022-11-26T22:44:31.307Z,14.76
2022-11-26T22:46:58.688Z,14.69
2022-11-26T22:49:25.821Z,14.43
2022-11-26T22:51:52.925Z,14.57
2022-11-26T22:54:21.324Z,14.82
2022-11-26T22:56:48.483Z,14.76
2022-11-26T22:59:15.591Z,14.64
2022-11-26T23:01:42.971Z,14.55
2022-11-26T23:04:10.441Z,14.87
2022-11-26T23:06:38.055Z,15.04
2022-11-26T23:09:05.792Z,14.71
2022-11-26T23:11:33.876Z,14.64
2022-11-26T23:14:02.178Z,14.77
2022-11-26T23:16:29.689Z,14.60
2022-11-26T23:18:57.048Z,14.79
2022-11-26T23:21:25.575Z,14.68
2022-11-26T23:23:53.110Z,14.99
2022-11-26T23:26:26.374Z,14.34
2022-11-26T23:28:58.133Z,13.68
2022-11-26T23:31:26.965Z,13.92
2022-11-26T23:33:54.397Z,13.29
2022-11-26T23:36:21.543Z,13.70
2022-11-26T23:38:48.676Z,13.66
2022-11-26T23:41:16.148Z,14.02
2022-11-26T23:43:43.351Z,14.29
2022-11-26T23:46:13.600Z,14.34
2022-11-26T23:48:41.329Z,14.22
2022-11-26T23:51:09.613Z,14.63
2022-11-26T23:53:37.156Z,14.53
2022-11-26T23:56:05.495Z,14.22
2022-11-26T23:58:32.678Z,14.59
